Time;durP1;ratioP1;P1;durP2;ratioP2;P2;SDS_P1;SDS_P2;PMS_P1;PMS_P2;Temp;Humidity;BMP_temperature;BMP_pressure;BME280_temperature;BME280_humidity;BME280_pressure;Samples;Min_cycle;Max_cycle;Signal;HPM_P1;HPM_P2
2021/12/31 00:00:57;;;;;;;4.18;1.85;;;11.50;99.90;;;;;;4990068;28;20382;-71
2021/12/31 00:03:23;;;;;;;6.28;2.05;;;11.50;99.90;;;;;;4989455;28;20046;-71
2021/12/31 00:05:49;;;;;;;3.85;1.70;;;11.40;99.90;;;;;;4990582;28;20110;-71
2021/12/31 00:08:14;;;;;;;3.53;1.80;;;11.50;99.90;;;;;;4988668;28;20030;-71
2021/12/31 00:10:40;;;;;;;3.25;1.52;;;11.50;99.90;;;;;;4990046;28;20078;-71
2021/12/31 00:13:06;;;;;;;4.93;1.70;;;11.50;99.90;;;;;;4990409;28;20106;-71
2021/12/31 00:15:32;;;;;;;5.88;2.35;;;11.60;99.90;;;;;;4989688;28;20037;-71
2021/12/31 00:17:57;;;;;;;6.60;2.08;;;11.50;99.90;;;;;;4988531;28;20473;-71
2021/12/31 00:20:25;;;;;;;5.15;1.98;;;11.50;99.90;;;;;;4989855;28;20042;-71
2021/12/31 00:23:03;;;;;;;3.55;2.25;;;11.50;99.90;;;;;;4990093;28;20029;-71
2021/12/31 00:25:30;;;;;;;4.63;1.80;;;11.60;99.90;;;;;;4989550;28;20098;-71
2021/12/31 00:27:56;;;;;;;3.90;1.92;;;11.60;99.90;;;;;;4990517;28;20023;-71
2021/12/31 00:30:22;;;;;;;4.13;2.20;;;11.60;99.90;;;;;;4988908;28;20502;-71
2021/12/31 00:32:48;;;;;;;2.88;1.80;;;11.50;99.90;;;;;;4989893;28;20541;-70
2021/12/31 00:35:15;;;;;;;3.50;1.80;;;11.60;99.90;;;;;;4988865;28;20026;-71
2021/12/31 00:37:41;;;;;;;2.75;1.65;;;11.50;99.90;;;;;;4989454;28;20147;-72
2021/12/31 00:40:12;;;;;;;3.78;1.70;;;11.60;99.90;;;;;;4989837;28;20065;-71
2021/12/31 00:42:39;;;;;;;4.80;1.98;;;11.60;99.90;;;;;;4988197;28;20031;-71
2021/12/31 00:45:07;;;;;;;3.53;1.50;;;11.70;99.90;;;;;;4988851;28;20030;-72
2021/12/31 00:47:32;;;;;;;4.15;1.80;;;11.70;99.90;;;;;;4988535;28;20192;-71
2021/12/31 00:49:58;;;;;;;3.40;1.60;;;11.70;99.90;;;;;;4989607;28;20567;-71
2021/12/31 00:52:24;;;;;;;3.25;1.55;;;11.70;99.90;;;;;;4989421;28;20030;-71
2021/12/31 00:54:50;;;;;;;3.97;1.48;;;11.70;99.90;;;;;;4988897;28;20038;-71
2021/12/31 00:57:16;;;;;;;3.80;1.38;;;11.70;99.90;;;;;;4989048;28;20526;-70
2021/12/31 00:59:41;;;;;;;2.53;1.45;;;11.80;99.90;;;;;;4988654;28;20109;-71
2021/12/31 01:02:08;;;;;;;4.32;1.60;;;11.70;99.90;;;;;;4989308;28;20450;-71
2021/12/31 01:04:34;;;;;;;3.17;1.40;;;11.70;99.90;;;;;;4988433;28;20185;-71
2021/12/31 01:07:01;;;;;;;3.50;1.70;;;11.80;99.90;;;;;;4989390;28;20034;-71
2021/12/31 01:09:28;;;;;;;4.75;1.70;;;11.70;99.90;;;;;;4988615;28;20080;-71
2021/12/31 01:11:56;;;;;;;4.30;1.67;;;11.70;99.90;;;;;;4987712;28;20041;-70
2021/12/31 01:14:35;;;;;;;4.32;1.42;;;11.80;99.90;;;;;;4988608;28;20057;-70
2021/12/31 01:17:05;;;;;;;3.83;1.30;;;11.80;99.90;;;;;;4989418;28;20434;-70
2021/12/31 01:19:46;;;;;;;4.05;1.88;;;11.80;99.90;;;;;;4988575;28;20537;-70
2021/12/31 01:22:28;;;;;;;3.92;1.42;;;11.80;99.90;;;;;;4989235;28;20038;-72
2021/12/31 01:24:53;;;;;;;5.07;1.35;;;11.80;99.90;;;;;;4984144;28;20445;-71
2021/12/31 01:27:19;;;;;;;2.97;1.65;;;11.70;99.90;;;;;;4988572;28;20034;-70
2021/12/31 01:29:45;;;;;;;4.20;1.83;;;11.70;99.90;;;;;;4988587;28;20069;-70
2021/12/31 01:32:11;;;;;;;2.05;1.25;;;11.60;99.90;;;;;;4988934;28;20467;-71
2021/12/31 01:34:38;;;;;;;3.05;1.60;;;11.50;99.90;;;;;;4988132;28;20093;-71
2021/12/31 01:37:04;;;;;;;9.80;2.78;;;11.50;99.90;;;;;;4989113;28;20078;-71
2021/12/31 01:39:30;;;;;;;2.90;1.35;;;11.50;99.90;;;;;;4969774;28;20069;-71
2021/12/31 01:41:58;;;;;;;3.08;1.58;;;11.40;99.90;;;;;;4969498;28;20467;-71
2021/12/31 01:44:36;;;;;;;4.32;1.45;;;11.40;99.90;;;;;;4968611;28;20089;-71
2021/12/31 01:47:08;;;;;;;2.22;1.13;;;11.50;99.90;;;;;;4968860;28;20031;-71
2021/12/31 01:49:37;;;;;;;3.05;1.38;;;11.50;99.90;;;;;;4968334;28;20117;-70
2021/12/31 01:52:05;;;;;;;3.90;1.40;;;11.50;99.90;;;;;;4952138;28;20035;-71
2021/12/31 01:54:32;;;;;;;3.38;1.30;;;11.50;99.90;;;;;;4953005;28;20030;-71
2021/12/31 01:57:01;;;;;;;5.13;2.17;;;11.50;99.90;;;;;;4973422;28;20448;-71
2021/12/31 01:59:28;;;;;;;2.50;1.40;;;11.50;99.90;;;;;;4968974;28;20035;-70
2021/12/31 02:01:55;;;;;;;5.00;1.60;;;11.60;99.90;;;;;;4969004;28;20027;-71
2021/12/31 02:04:20;;;;;;;3.42;1.30;;;11.50;99.90;;;;;;4968927;28;20035;-70
2021/12/31 02:06:46;;;;;;;2.40;1.27;;;11.40;99.90;;;;;;4972345;28;20042;-71
2021/12/31 02:09:13;;;;;;;3.38;1.58;;;11.40;99.90;;;;;;4992899;28;20454;-71
2021/12/31 02:11:39;;;;;;;2.70;1.45;;;11.40;99.90;;;;;;4973580;28;20026;-71
2021/12/31 02:14:05;;;;;;;4.30;1.73;;;11.30;99.90;;;;;;4973600;28;20046;-70
2021/12/31 02:16:31;;;;;;;3.20;1.30;;;11.40;99.90;;;;;;4972594;28;20122;-71
2021/12/31 02:18:58;;;;;;;3.03;1.60;;;11.40;99.90;;;;;;4973023;28;20450;-71
2021/12/31 02:21:24;;;;;;;2.22;1.20;;;11.30;99.90;;;;;;4972149;28;20472;-70
2021/12/31 02:23:55;;;;;;;4.68;1.77;;;11.30;99.90;;;;;;4973147;28;20034;-70
2021/12/31 02:26:21;;;;;;;3.83;1.40;;;11.40;99.90;;;;;;4972446;28;20084;-70
2021/12/31 02:28:47;;;;;;;2.65;1.55;;;11.40;99.90;;;;;;4970641;28;20403;-72
2021/12/31 02:31:13;;;;;;;2.55;1.38;;;11.40;99.90;;;;;;4955353;28;20035;-71
2021/12/31 02:33:39;;;;;;;4.30;1.58;;;11.40;99.90;;;;;;4974254;28;20018;-70
2021/12/31 02:36:07;;;;;;;3.72;1.50;;;11.40;99.90;;;;;;4973565;28;20034;-71
2021/12/31 02:38:33;;;;;;;3.05;1.38;;;11.40;99.90;;;;;;4991792;28;20041;-71
2021/12/31 02:40:58;;;;;;;6.65;1.60;;;11.40;99.90;;;;;;4992054;28;20030;-70
2021/12/31 02:43:24;;;;;;;3.50;1.70;;;11.40;99.90;;;;;;4990385;28;20045;-71
2021/12/31 02:45:50;;;;;;;3.13;1.60;;;11.40;99.90;;;;;;4992216;28;20118;-71
2021/12/31 02:48:24;;;;;;;6.15;1.80;;;11.40;99.90;;;;;;4990720;28;20388;-72
2021/12/31 02:50:51;;;;;;;2.95;1.52;;;11.40;99.90;;;;;;4990838;28;20097;-70
2021/12/31 02:53:20;;;;;;;5.20;1.40;;;11.30;99.90;;;;;;4991314;28;20026;-72
2021/12/31 02:55:53;;;;;;;4.22;1.58;;;11.30;99.90;;;;;;4992274;28;20042;-71
2021/12/31 02:58:19;;;;;;;6.15;2.10;;;11.20;99.90;;;;;;4990891;28;20038;-72
2021/12/31 03:00:45;;;;;;;3.40;1.63;;;11.20;99.90;;;;;;4991220;28;20042;-70
2021/12/31 03:03:13;;;;;;;3.95;1.38;;;11.20;99.90;;;;;;4991551;28;20757;-70
2021/12/31 03:05:40;;;;;;;2.92;1.60;;;11.20;99.90;;;;;;4990838;28;20061;-71
2021/12/31 03:08:10;;;;;;;4.88;1.88;;;11.10;99.90;;;;;;4991881;28;20482;-71
2021/12/31 03:10:36;;;;;;;3.40;1.67;;;11.10;99.90;;;;;;4977957;28;20134;-71
2021/12/31 03:13:02;;;;;;;4.13;2.05;;;11.00;99.90;;;;;;4991786;28;20026;-71
2021/12/31 03:15:29;;;;;;;4.97;1.48;;;10.90;99.90;;;;;;4993871;28;20030;-72
2021/12/31 03:17:59;;;;;;;2.97;1.45;;;10.90;99.90;;;;;;4990188;28;20105;-71
2021/12/31 03:20:36;;;;;;;3.55;1.38;;;10.90;99.90;;;;;;4990146;28;20129;-72
2021/12/31 03:23:05;;;;;;;6.00;1.90;;;10.80;99.90;;;;;;4991687;28;20036;-71
2021/12/31 03:25:31;;;;;;;5.68;1.52;;;10.80;99.90;;;;;;4990324;28;20165;-71
2021/12/31 03:27:57;;;;;;;6.45;1.63;;;10.80;99.90;;;;;;4993781;28;20097;-71
2021/12/31 03:30:22;;;;;;;3.55;1.50;;;10.80;99.90;;;;;;5002278;28;20149;-71
2021/12/31 03:32:48;;;;;;;2.97;1.40;;;10.80;99.90;;;;;;4991592;28;20077;-71
2021/12/31 03:35:14;;;;;;;2.30;1.40;;;10.70;99.90;;;;;;4990099;28;20030;-71
2021/12/31 03:37:39;;;;;;;5.00;1.45;;;10.70;99.90;;;;;;4990366;28;20571;-71
2021/12/31 03:40:06;;;;;;;3.90;1.70;;;10.70;99.90;;;;;;4990759;28;20701;-72
2021/12/31 03:42:32;;;;;;;5.05;1.88;;;10.70;99.90;;;;;;4990255;28;20034;-71
2021/12/31 03:44:58;;;;;;;2.97;1.42;;;10.60;99.90;;;;;;4989568;28;20026;-71
2021/12/31 03:47:24;;;;;;;3.67;1.50;;;10.50;99.90;;;;;;4989277;28;20413;-72
2021/12/31 03:49:49;;;;;;;4.22;1.70;;;10.50;99.90;;;;;;4990975;28;20124;-72
2021/12/31 03:52:15;;;;;;;4.20;1.80;;;10.50;99.90;;;;;;4991229;28;20093;-70
2021/12/31 03:54:41;;;;;;;4.20;1.52;;;10.50;99.90;;;;;;4989980;28;20026;-71
2021/12/31 03:57:06;;;;;;;3.47;1.70;;;10.50;99.90;;;;;;4991352;28;20077;-71
2021/12/31 03:59:32;;;;;;;2.65;1.50;;;10.40;99.90;;;;;;4989727;28;20137;-71
2021/12/31 04:01:57;;;;;;;3.65;1.42;;;10.40;99.90;;;;;;4990280;28;20042;-71
2021/12/31 04:04:23;;;;;;;3.30;1.70;;;10.30;99.90;;;;;;4989673;28;20046;-71
2021/12/31 04:06:49;;;;;;;2.60;1.35;;;10.30;99.90;;;;;;4990734;28;20105;-71
2021/12/31 04:09:14;;;;;;;3.13;1.50;;;10.20;99.90;;;;;;4990273;28;20482;-71
2021/12/31 04:11:40;;;;;;;5.18;1.40;;;10.20;99.90;;;;;;4988525;28;20781;-71
2021/12/31 04:14:06;;;;;;;3.70;1.70;;;10.10;99.90;;;;;;4990172;28;20795;-71
2021/12/31 04:16:32;;;;;;;4.05;1.60;;;10.00;99.90;;;;;;4989289;28;20038;-70
2021/12/31 04:18:57;;;;;;;2.60;1.20;;;9.90;99.90;;;;;;4989639;28;20121;-70
2021/12/31 04:21:24;;;;;;;4.90;1.80;;;9.90;99.90;;;;;;4989813;28;20105;-72
2021/12/31 04:24:05;;;;;;;3.40;1.70;;;9.80;99.90;;;;;;4989696;28;20034;-71
2021/12/31 04:26:31;;;;;;;4.82;1.67;;;9.70;99.90;;;;;;4984832;28;20030;-72
2021/12/31 04:28:57;;;;;;;2.67;1.40;;;9.70;99.90;;;;;;4989831;28;20062;-72
2021/12/31 04:31:23;;;;;;;4.13;1.85;;;9.60;99.90;;;;;;4988500;28;20074;-71
2021/12/31 04:33:49;;;;;;;3.00;1.60;;;9.40;99.90;;;;;;4987393;28;20054;-71
2021/12/31 04:36:15;;;;;;;3.75;1.60;;;9.30;99.90;;;;;;4989265;28;20522;-71
2021/12/31 04:38:41;;;;;;;3.58;1.67;;;9.10;99.90;;;;;;4989439;28;20027;-72
2021/12/31 04:41:06;;;;;;;3.28;1.55;;;9.00;99.90;;;;;;4999159;28;20030;-71
2021/12/31 04:43:32;;;;;;;4.50;1.67;;;8.90;99.90;;;;;;4989243;28;20471;-70
2021/12/31 04:45:58;;;;;;;3.97;1.40;;;8.80;99.90;;;;;;4990149;28;20042;-71
2021/12/31 04:48:24;;;;;;;3.08;1.55;;;8.70;99.90;;;;;;4989347;28;20631;-72
2021/12/31 04:50:50;;;;;;;3.78;1.80;;;8.70;99.90;;;;;;4988739;28;20045;-71
2021/12/31 04:53:16;;;;;;;3.50;1.75;;;8.60;99.90;;;;;;4989859;28;20052;-71
2021/12/31 04:55:41;;;;;;;3.92;1.80;;;8.50;99.90;;;;;;4988976;28;20732;-71
2021/12/31 04:58:07;;;;;;;4.00;1.90;;;8.50;99.90;;;;;;4991617;28;20034;-70
2021/12/31 05:00:33;;;;;;;6.22;2.55;;;8.40;99.90;;;;;;4983076;28;20490;-70
2021/12/31 05:03:08;;;;;;;8.55;2.55;;;8.30;99.90;;;;;;4989456;28;20026;-71
2021/12/31 05:05:35;;;;;;;5.68;2.58;;;8.30;99.90;;;;;;4987417;28;20442;-70
2021/12/31 05:08:00;;;;;;;5.40;2.10;;;8.20;99.90;;;;;;4987704;28;20030;-71
2021/12/31 05:10:30;;;;;;;5.05;2.25;;;8.20;99.90;;;;;;4988991;28;20088;-72
2021/12/31 05:12:56;;;;;;;3.88;2.13;;;8.20;99.90;;;;;;4988918;28;20034;-71
2021/12/31 05:15:27;;;;;;;4.60;2.33;;;8.10;99.90;;;;;;4987606;28;20037;-70
2021/12/31 05:17:53;;;;;;;4.57;2.47;;;8.10;99.90;;;;;;4987064;28;20038;-71
2021/12/31 05:20:19;;;;;;;3.90;1.77;;;8.10;99.90;;;;;;4989230;28;20125;-71
2021/12/31 05:22:44;;;;;;;5.10;2.05;;;8.20;99.90;;;;;;4988255;28;20045;-71
2021/12/31 05:25:10;;;;;;;7.45;1.77;;;8.10;99.90;;;;;;4989117;28;20034;-71
2021/12/31 05:27:37;;;;;;;4.03;2.00;;;8.00;99.90;;;;;;4988572;28;20031;-71
2021/12/31 05:30:04;;;;;;;5.15;2.40;;;7.90;99.90;;;;;;4988543;28;20034;-71
2021/12/31 05:32:30;;;;;;;3.97;2.00;;;8.00;99.90;;;;;;4988466;28;20030;-71
2021/12/31 05:34:55;;;;;;;4.72;2.05;;;8.10;99.90;;;;;;4988572;28;20084;-70
2021/12/31 05:37:21;;;;;;;5.43;2.60;;;8.00;99.90;;;;;;4981826;28;20042;-71
2021/12/31 05:39:47;;;;;;;3.80;2.00;;;8.00;99.90;;;;;;4988005;28;20598;-71
2021/12/31 05:42:13;;;;;;;4.32;2.03;;;7.80;99.90;;;;;;4987633;28;20569;-71
2021/12/31 05:44:39;;;;;;;4.22;2.35;;;7.70;99.90;;;;;;4988027;28;20113;-71
2021/12/31 05:47:04;;;;;;;4.07;2.45;;;7.70;99.90;;;;;;4988593;28;20497;-70
2021/12/31 05:49:30;;;;;;;43.67;3.05;;;7.70;99.90;;;;;;4987151;28;20038;-72
2021/12/31 05:51:56;;;;;;;30.88;3.00;;;7.80;99.90;;;;;;4985939;28;20030;-72
2021/12/31 05:54:21;;;;;;;164.10;4.28;;;7.80;99.90;;;;;;4987719;28;20034;-72
2021/12/31 05:56:47;;;;;;;32.40;2.05;;;7.70;99.90;;;;;;4985883;28;20066;-71
2021/12/31 05:59:13;;;;;;;4.28;1.58;;;7.60;99.90;;;;;;4988397;28;20034;-71
2021/12/31 06:01:38;;;;;;;3.00;1.40;;;7.50;99.90;;;;;;4983267;28;20088;-71
2021/12/31 06:04:04;;;;;;;4.68;2.42;;;7.50;99.90;;;;;;4987150;28;20042;-72
2021/12/31 06:06:30;;;;;;;6.95;2.15;;;7.40;99.90;;;;;;4985406;28;20034;-71
2021/12/31 06:08:55;;;;;;;3.50;2.00;;;7.40;99.90;;;;;;4970287;28;20065;-72
2021/12/31 06:11:21;;;;;;;6.38;2.53;;;7.40;99.90;;;;;;4986649;28;20420;-71
2021/12/31 06:13:54;;;;;;;5.25;2.53;;;7.30;99.90;;;;;;4996519;28;20034;-71
2021/12/31 06:16:20;;;;;;;6.20;2.50;;;7.30;99.90;;;;;;4988469;28;20027;-70
2021/12/31 06:18:46;;;;;;;4.07;2.35;;;7.30;99.90;;;;;;4986514;28;20113;-71
2021/12/31 06:21:11;;;;;;;11.65;2.88;;;7.40;99.90;;;;;;4988341;28;20434;-71
2021/12/31 06:23:37;;;;;;;176.85;5.45;;;7.50;99.90;;;;;;4987297;28;20027;-72
2021/12/31 06:26:03;;;;;;;412.13;10.75;;;7.40;99.90;;;;;;4986365;28;20058;-72
2021/12/31 06:28:28;;;;;;;331.60;7.57;;;7.40;99.90;;;;;;4983846;28;20065;-72
2021/12/31 06:30:54;;;;;;;348.20;8.70;;;7.30;99.90;;;;;;4986967;28;20046;-73
2021/12/31 06:33:19;;;;;;;119.25;3.45;;;7.20;99.90;;;;;;4988127;28;20500;-72
2021/12/31 06:35:45;;;;;;;82.30;2.88;;;7.10;99.90;;;;;;4987192;28;20034;-72
2021/12/31 06:38:11;;;;;;;46.38;2.22;;;7.00;99.90;;;;;;4987486;28;20451;-72
2021/12/31 06:40:38;;;;;;;12.27;1.30;;;7.00;99.90;;;;;;4990210;28;20491;-73
2021/12/31 06:43:04;;;;;;;2.45;1.40;;;6.90;99.90;;;;;;4987361;28;20483;-71
2021/12/31 06:45:30;;;;;;;20.65;1.90;;;6.80;99.90;;;;;;4988148;28;20045;-71
2021/12/31 06:47:56;;;;;;;86.18;2.80;;;6.90;99.90;;;;;;4987703;28;20019;-72
2021/12/31 06:50:22;;;;;;;116.18;4.88;;;6.80;99.90;;;;;;4988129;28;20402;-72
2021/12/31 06:52:47;;;;;;;7.20;2.45;;;6.70;99.90;;;;;;4988555;28;20550;-72
2021/12/31 06:55:13;;;;;;;105.63;6.85;;;6.50;99.90;;;;;;4997450;28;20077;-72
2021/12/31 06:57:39;;;;;;;345.05;9.68;;;6.40;99.90;;;;;;4990658;28;20057;-72
2021/12/31 07:00:06;;;;;;;17.15;3.00;;;6.40;99.90;;;;;;4991644;28;20041;-72
2021/12/31 07:02:32;;;;;;;10.45;2.72;;;6.30;99.90;;;;;;4990253;28;20038;-73
2021/12/31 07:04:58;;;;;;;239.38;5.70;;;6.10;99.90;;;;;;4991413;28;20383;-72
2021/12/31 07:07:23;;;;;;;144.73;4.70;;;6.20;99.90;;;;;;4991122;28;20058;-72
2021/12/31 07:09:49;;;;;;;180.10;4.32;;;6.20;99.90;;;;;;4991392;28;20038;-72
2021/12/31 07:12:15;;;;;;;200.82;6.45;;;6.10;99.90;;;;;;4991725;28;20398;-72
2021/12/31 07:14:40;;;;;;;31.40;4.80;;;6.20;99.90;;;;;;4991026;28;20050;-72
2021/12/31 07:17:06;;;;;;;9.70;4.07;;;6.10;99.90;;;;;;4991377;28;20386;-72
2021/12/31 07:19:32;;;;;;;9.43;4.20;;;6.10;99.90;;;;;;4989478;28;20042;-72
2021/12/31 07:21:58;;;;;;;7.40;3.63;;;6.00;99.90;;;;;;4991061;28;20077;-72
2021/12/31 07:24:23;;;;;;;37.13;4.85;;;5.90;99.90;;;;;;4991785;28;20195;-72
2021/12/31 07:26:49;;;;;;;19.02;4.00;;;5.80;99.90;;;;;;4989346;28;20034;-73
2021/12/31 07:29:15;;;;;;;215.77;7.32;;;5.90;99.90;;;;;;4990058;28;20038;-73
2021/12/31 07:31:40;;;;;;;84.82;5.00;;;5.90;99.90;;;;;;4989686;28;20109;-72
2021/12/31 07:34:06;;;;;;;23.15;3.65;;;5.80;99.90;;;;;;4990120;28;20026;-73
2021/12/31 07:36:31;;;;;;;9.18;2.60;;;5.80;99.90;;;;;;4991064;28;20073;-72
2021/12/31 07:39:05;;;;;;;18.67;2.70;;;5.70;99.90;;;;;;4990312;28;20037;-72
2021/12/31 07:41:30;;;;;;;16.83;2.80;;;5.60;99.90;;;;;;4989934;28;20040;-73
2021/12/31 07:43:56;;;;;;;9.90;3.58;;;5.50;99.90;;;;;;4990509;28;20647;-73
2021/12/31 07:46:22;;;;;;;5.45;3.10;;;5.50;99.90;;;;;;4990061;28;20034;-73
2021/12/31 07:48:48;;;;;;;5.00;2.63;;;5.60;99.90;;;;;;4989744;28;20526;-71
2021/12/31 07:51:14;;;;;;;5.07;2.60;;;5.80;99.90;;;;;;4980457;28;20030;-72
2021/12/31 07:53:39;;;;;;;4.53;2.42;;;5.90;99.90;;;;;;4989499;28;20478;-73
2021/12/31 07:56:05;;;;;;;4.72;2.50;;;6.10;99.90;;;;;;4988623;28;20128;-72
2021/12/31 07:58:31;;;;;;;10.77;2.53;;;6.30;99.90;;;;;;4992819;28;20026;-73
2021/12/31 08:00:56;;;;;;;35.13;3.00;;;6.40;99.90;;;;;;4989487;28;20069;-73
2021/12/31 08:03:22;;;;;;;32.17;3.13;;;6.50;99.90;;;;;;4990105;28;20034;-73
2021/12/31 08:05:48;;;;;;;3.58;1.92;;;6.60;99.90;;;;;;4994159;28;20030;-74
2021/12/31 08:08:14;;;;;;;95.13;3.25;;;6.60;99.90;;;;;;4992733;28;20035;-73
2021/12/31 08:10:39;;;;;;;16.50;1.80;;;6.60;99.90;;;;;;4989687;28;20046;-72
2021/12/31 08:13:08;;;;;;;15.57;1.98;;;6.70;99.90;;;;;;4990852;28;20088;-73
2021/12/31 08:15:33;;;;;;;25.88;2.00;;;6.60;99.90;;;;;;4990059;28;20038;-72
2021/12/31 08:17:59;;;;;;;24.90;1.98;;;6.50;99.90;;;;;;4989565;28;20404;-73
2021/12/31 08:20:25;;;;;;;9.27;2.03;;;6.40;99.90;;;;;;4989687;28;20114;-72
2021/12/31 08:22:52;;;;;;;106.90;3.15;;;6.50;99.90;;;;;;4984837;28;20058;-72
2021/12/31 08:25:18;;;;;;;36.90;2.53;;;6.50;99.90;;;;;;4988661;28;20541;-73
2021/12/31 08:27:44;;;;;;;19.67;2.40;;;6.40;99.90;;;;;;4986723;28;20027;-73
2021/12/31 08:30:11;;;;;;;11.98;2.53;;;6.40;99.90;;;;;;4988501;28;20039;-72
2021/12/31 08:32:37;;;;;;;6.72;2.60;;;6.50;99.90;;;;;;4988737;28;20093;-73
2021/12/31 08:35:05;;;;;;;14.25;2.60;;;6.60;99.90;;;;;;4989167;28;20110;-73
2021/12/31 08:37:30;;;;;;;62.30;3.65;;;6.70;99.90;;;;;;4989275;28;20054;-73
2021/12/31 08:39:57;;;;;;;30.23;2.42;;;6.80;99.90;;;;;;4988946;28;20041;-72
2021/12/31 08:42:23;;;;;;;109.28;4.05;;;6.80;99.90;;;;;;4984936;28;20030;-72
2021/12/31 08:44:49;;;;;;;7.97;1.60;;;6.80;99.90;;;;;;4988589;28;20026;-73
2021/12/31 08:47:15;;;;;;;15.20;2.10;;;6.80;99.90;;;;;;4988441;28;20033;-72
2021/12/31 08:49:40;;;;;;;4.13;1.70;;;6.80;99.90;;;;;;4989279;28;20057;-74
2021/12/31 08:52:06;;;;;;;2.22;1.40;;;6.80;99.90;;;;;;4988875;28;20026;-73
2021/12/31 08:54:32;;;;;;;4.55;2.33;;;6.90;99.90;;;;;;4989692;28;20031;-72
2021/12/31 08:57:00;;;;;;;24.05;2.90;;;6.90;99.90;;;;;;4988780;28;20064;-73
2021/12/31 08:59:26;;;;;;;4.78;2.60;;;7.10;99.90;;;;;;4988503;28;20060;-73
2021/12/31 09:01:52;;;;;;;9.27;2.70;;;7.30;99.90;;;;;;4988462;28;20034;-73
2021/12/31 09:04:17;;;;;;;42.78;4.20;;;7.40;99.90;;;;;;4989982;28;20035;-72
2021/12/31 09:06:43;;;;;;;60.78;4.25;;;7.60;99.90;;;;;;4986940;28;20093;-73
2021/12/31 09:09:09;;;;;;;21.90;3.33;;;7.70;99.90;;;;;;4989423;28;20053;-72
2021/12/31 09:11:34;;;;;;;20.33;3.72;;;7.90;99.90;;;;;;4988628;28;20117;-71
2021/12/31 09:14:00;;;;;;;9.15;2.67;;;8.10;99.90;;;;;;4988538;28;20025;-73
2021/12/31 09:16:26;;;;;;;8.30;4.05;;;8.30;99.90;;;;;;4987346;28;20517;-71
2021/12/31 09:18:52;;;;;;;7.50;4.07;;;8.50;99.90;;;;;;4987114;28;20076;-72
2021/12/31 09:21:18;;;;;;;8.68;4.00;;;8.60;99.90;;;;;;4989237;28;20057;-73
2021/12/31 09:23:45;;;;;;;7.30;3.97;;;8.80;99.90;;;;;;4988599;28;20109;-73
2021/12/31 09:26:11;;;;;;;6.28;3.55;;;9.00;99.90;;;;;;4987227;28;21578;-72
2021/12/31 09:28:36;;;;;;;11.60;4.05;;;9.10;99.90;;;;;;4987491;28;20031;-70
2021/12/31 09:31:03;;;;;;;6.68;2.53;;;9.30;99.90;;;;;;4988336;28;20034;-72
2021/12/31 09:33:29;;;;;;;4.45;2.45;;;9.50;99.90;;;;;;4989067;28;20034;-72
2021/12/31 09:35:55;;;;;;;4.80;2.72;;;9.60;99.90;;;;;;4987259;28;20026;-71
2021/12/31 09:38:21;;;;;;;6.50;3.72;;;9.60;99.90;;;;;;4988242;28;20038;-72
2021/12/31 09:40:48;;;;;;;6.70;2.88;;;9.80;99.90;;;;;;4990265;28;20049;-72
2021/12/31 09:43:14;;;;;;;6.28;3.15;;;9.90;99.90;;;;;;4988628;28;20050;-71
2021/12/31 09:45:45;;;;;;;9.60;3.42;;;9.90;99.90;;;;;;4989029;28;20092;-73
2021/12/31 09:48:16;;;;;;;9.43;3.55;;;10.00;99.90;;;;;;4990326;28;20032;-72
2021/12/31 09:50:47;;;;;;;10.50;3.58;;;10.10;99.90;;;;;;4988680;28;20030;-71
2021/12/31 09:53:15;;;;;;;5.28;3.03;;;10.20;99.90;;;;;;5000125;28;20030;-72
2021/12/31 09:55:40;;;;;;;6.88;2.85;;;10.30;99.90;;;;;;4989102;28;20120;-72
2021/12/31 09:58:08;;;;;;;6.30;3.53;;;10.30;99.90;;;;;;4987148;28;20058;-72
2021/12/31 10:00:34;;;;;;;6.50;3.20;;;10.50;99.90;;;;;;4988366;28;20140;-72
2021/12/31 10:03:19;;;;;;;5.95;3.20;;;10.60;99.90;;;;;;4998751;28;20061;-72
2021/12/31 10:05:51;;;;;;;7.10;3.90;;;10.60;99.90;;;;;;4986534;28;20034;-72
2021/12/31 10:08:41;;;;;;;7.65;3.28;;;10.70;99.90;;;;;;4988173;28;20049;-72
2021/12/31 10:11:19;;;;;;;5.57;2.88;;;10.70;99.90;;;;;;4987716;28;20895;-71
2021/12/31 10:13:57;;;;;;;6.32;3.00;;;10.80;99.90;;;;;;4986181;28;20034;-72
2021/12/31 10:16:32;;;;;;;7.35;3.42;;;10.80;99.90;;;;;;4987970;28;20041;-71
2021/12/31 10:19:05;;;;;;;6.63;3.03;;;10.90;99.90;;;;;;4987758;28;20490;-72
2021/12/31 10:21:46;;;;;;;7.03;3.10;;;10.90;99.90;;;;;;4986955;28;20037;-72
2021/12/31 10:24:22;;;;;;;7.78;3.10;;;11.10;99.90;;;;;;4985346;28;20375;-72
2021/12/31 10:26:54;;;;;;;5.32;2.80;;;11.30;99.90;;;;;;4985829;28;20083;-72
2021/12/31 10:29:20;;;;;;;6.03;2.83;;;11.40;99.90;;;;;;4992945;28;20038;-72
2021/12/31 10:31:53;;;;;;;7.75;3.20;;;11.30;99.90;;;;;;4991412;28;20541;-72
2021/12/31 10:34:36;;;;;;;5.72;2.72;;;11.40;99.90;;;;;;4991585;28;20034;-71
2021/12/31 10:37:24;;;;;;;4.28;2.42;;;11.50;99.90;;;;;;4991131;28;20129;-72
2021/12/31 10:39:59;;;;;;;4.68;2.22;;;11.50;99.90;;;;;;4980746;28;20050;-71
2021/12/31 10:42:32;;;;;;;5.32;2.70;;;11.50;99.90;;;;;;4990829;28;20109;-71
2021/12/31 10:45:00;;;;;;;3.70;2.35;;;11.60;99.90;;;;;;4990248;28;20039;-72
2021/12/31 10:47:42;;;;;;;5.28;2.50;;;11.60;99.90;;;;;;4991943;28;20041;-72
2021/12/31 10:50:13;;;;;;;5.55;2.97;;;11.60;99.90;;;;;;4990389;28;20081;-72
2021/12/31 10:52:44;;;;;;;4.32;2.40;;;11.60;99.90;;;;;;4991885;28;20049;-71
2021/12/31 10:55:17;;;;;;;;;;;11.60;99.90;;;;;;4991059;28;20065;-72
2021/12/31 10:57:45;;;;;;;4.07;2.00;;;11.70;99.90;;;;;;4990226;28;20633;-71
2021/12/31 11:00:12;;;;;;;6.20;2.75;;;11.70;99.90;;;;;;4989924;28;20546;-71
2021/12/31 11:02:38;;;;;;;5.18;2.40;;;11.90;99.90;;;;;;4991651;28;20387;-72
2021/12/31 11:05:05;;;;;;;5.05;2.35;;;12.10;99.90;;;;;;4991186;28;20044;-71
2021/12/31 11:07:31;;;;;;;5.53;2.35;;;12.20;99.90;;;;;;4999295;28;20117;-71
2021/12/31 11:10:01;;;;;;;5.18;2.00;;;12.30;99.90;;;;;;4991171;28;20042;-71
2021/12/31 11:12:27;;;;;;;3.53;1.90;;;12.30;99.90;;;;;;4991340;28;20034;-70
2021/12/31 11:14:54;;;;;;;5.65;1.80;;;12.40;99.90;;;;;;4990774;28;20030;-72
2021/12/31 11:17:20;;;;;;;3.45;2.10;;;12.40;99.90;;;;;;4995269;28;20041;-72
2021/12/31 11:19:49;;;;;;;3.33;1.63;;;12.50;99.90;;;;;;4991981;28;20096;-71
2021/12/31 11:22:16;;;;;;;3.22;1.55;;;12.60;99.90;;;;;;4991092;28;20484;-72
2021/12/31 11:24:43;;;;;;;7.38;1.60;;;12.70;99.90;;;;;;4991678;28;20030;-73
2021/12/31 11:27:30;;;;;;;4.22;1.92;;;12.70;99.90;;;;;;4998180;28;20596;-73
2021/12/31 11:29:57;;;;;;;2.83;1.40;;;12.70;99.90;;;;;;4990264;28;20041;-73
2021/12/31 11:32:55;;;;;;;4.95;1.80;;;12.70;99.90;;;;;;4991529;28;20053;-73
2021/12/31 11:35:32;;;;;;;5.45;1.80;;;12.60;99.90;;;;;;4986371;28;20033;-73
2021/12/31 11:37:58;;;;;;;3.00;1.33;;;12.70;99.90;;;;;;4989110;28;20100;-72
2021/12/31 11:40:33;;;;;;;5.05;1.60;;;12.80;99.90;;;;;;4990624;28;20517;-72
2021/12/31 11:43:23;;;;;;;3.72;1.55;;;12.90;99.90;;;;;;4989688;28;20471;-72
2021/12/31 11:46:19;;;;;;;3.33;1.67;;;13.00;99.90;;;;;;4991102;28;20383;-71
2021/12/31 11:48:46;;;;;;;3.40;1.52;;;13.00;99.90;;;;;;4990951;28;20105;-73
2021/12/31 11:51:14;;;;;;;3.03;1.38;;;13.00;99.90;;;;;;4989906;28;20475;-72
2021/12/31 11:53:58;;;;;;;3.28;1.30;;;13.20;99.90;;;;;;4990413;28;20030;-72
2021/12/31 11:56:36;;;;;;;2.90;1.30;;;13.20;99.90;;;;;;4990653;28;20777;-71
2021/12/31 11:59:07;;;;;;;3.58;1.40;;;13.20;99.90;;;;;;4989659;28;20027;-73
2021/12/31 12:01:52;;;;;;;5.68;1.50;;;13.30;99.90;;;;;;4990451;28;20034;-72
2021/12/31 12:04:38;;;;;;;2.30;1.20;;;13.60;99.90;;;;;;4997390;28;20030;-72
2021/12/31 12:07:24;;;;;;;1.90;1.30;;;13.90;99.90;;;;;;5009170;28;20081;-73
2021/12/31 12:09:50;;;;;;;2.78;1.38;;;14.10;99.90;;;;;;4987916;28;20042;-71
2021/12/31 12:12:27;;;;;;;2.15;1.15;;;14.20;99.90;;;;;;4989372;28;20514;-71
2021/12/31 12:14:55;;;;;;;4.22;1.30;;;14.30;99.90;;;;;;4989784;28;20038;-72
2021/12/31 12:17:43;;;;;;;3.30;1.00;;;14.30;99.90;;;;;;4990291;28;20521;-72
2021/12/31 12:20:13;;;;;;;4.05;1.20;;;14.50;99.90;;;;;;4970822;28;20682;-73
2021/12/31 12:23:07;;;;;;;2.33;1.05;;;14.60;99.90;;;;;;4988788;28;20027;-73
2021/12/31 12:25:33;;;;;;;3.75;1.30;;;14.80;99.90;;;;;;4989440;28;20053;-73
2021/12/31 12:28:09;;;;;;;2.97;1.30;;;14.80;99.90;;;;;;4989115;28;20030;-72
2021/12/31 12:30:42;;;;;;;3.42;1.40;;;14.70;99.90;;;;;;4990195;28;20035;-71
2021/12/31 12:35:39;;;;;;;4.63;2.10;;;14.90;99.90;;;;;;4990246;28;20393;-72
2021/12/31 12:38:11;;;;;;;4.90;1.88;;;14.80;99.90;;;;;;4988548;28;20054;-73
2021/12/31 12:40:39;;;;;;;3.50;1.70;;;14.70;99.90;;;;;;4989951;28;20398;-72
2021/12/31 12:43:06;;;;;;;3.00;1.55;;;14.70;99.90;;;;;;4988005;28;20508;-72
2021/12/31 12:45:33;;;;;;;2.38;1.30;;;14.90;99.90;;;;;;4984158;28;20089;-72
2021/12/31 12:47:59;;;;;;;2.63;1.20;;;15.40;99.90;;;;;;4989370;28;20023;-72
2021/12/31 12:50:25;;;;;;;2.40;1.23;;;15.70;99.90;;;;;;4989110;28;20120;-72
2021/12/31 12:52:55;;;;;;;4.38;1.40;;;15.60;99.90;;;;;;4989627;28;20034;-72
2021/12/31 12:55:21;;;;;;;2.83;1.30;;;15.40;99.90;;;;;;4987423;28;20041;-71